createdAt,value
2019-05-05T00:00:55.804Z,16.12
2019-05-05T00:03:28.892Z,13.68
2019-05-05T00:05:59.093Z,11.90
2019-05-05T00:08:27.676Z,10.58
2019-05-05T00:11:05.064Z,14.03
2019-05-05T00:13:35.571Z,12.37
2019-05-05T00:16:17.162Z,13.85
2019-05-05T00:18:45.603Z,11.97
2019-05-05T00:21:15.090Z,11.70
2019-05-05T00:23:45.140Z,12.68
2019-05-05T00:26:14.970Z,8.95
2019-05-05T00:28:44.795Z,10.32
2019-05-05T00:31:15.022Z,12.05
2019-05-05T00:33:44.903Z,11.60
2019-05-05T00:36:14.562Z,9.60
2019-05-05T00:39:04.314Z,10.98
2019-05-05T00:41:34.635Z,10.63
2019-05-05T00:44:04.773Z,11.35
2019-05-05T00:46:51.456Z,9.90
2019-05-05T00:49:20.100Z,9.55
2019-05-05T00:51:48.546Z,9.90
2019-05-05T00:54:17.074Z,10.63
2019-05-05T00:56:45.594Z,11.60
2019-05-05T00:59:18.431Z,11.43
2019-05-05T01:01:55.301Z,9.88
2019-05-05T01:04:31.542Z,8.05
2019-05-05T01:06:59.993Z,8.93
2019-05-05T01:09:30.378Z,8.68
2019-05-05T01:11:59.759Z,9.30
2019-05-05T01:14:28.234Z,10.23
2019-05-05T01:16:56.874Z,8.88
2019-05-05T01:19:25.355Z,9.45
2019-05-05T01:21:54.439Z,10.28
2019-05-05T01:24:24.766Z,8.68
2019-05-05T01:26:55.006Z,15.25
2019-05-05T01:29:25.284Z,12.97
2019-05-05T01:31:55.600Z,6.90
2019-05-05T01:34:25.714Z,12.33
2019-05-05T01:36:55.877Z,9.85
2019-05-05T01:39:28.533Z,10.93
2019-05-05T01:42:01.681Z,11.18
2019-05-05T01:44:30.239Z,14.47
2019-05-05T01:46:58.695Z,12.43
2019-05-05T01:49:27.410Z,10.50
2019-05-05T01:51:56.008Z,11.48
2019-05-05T01:54:25.087Z,13.70
2019-05-05T01:56:55.383Z,15.03
2019-05-05T01:59:25.006Z,28.70
2019-05-05T02:01:55.022Z,13.00
2019-05-05T02:04:24.981Z,10.03
2019-05-05T02:06:54.928Z,20.40
2019-05-05T02:09:24.942Z,17.40
2019-05-05T02:11:54.866Z,12.85
2019-05-05T02:14:24.639Z,13.68
2019-05-05T02:16:54.664Z,15.23
2019-05-05T02:19:25.033Z,12.63
2019-05-05T02:21:54.771Z,14.23
2019-05-05T02:24:25.101Z,12.05
2019-05-05T02:26:54.699Z,24.53
2019-05-05T02:29:25.783Z,11.85
2019-05-05T02:32:12.562Z,11.15
2019-05-05T02:34:45.528Z,10.98
2019-05-05T02:37:15.885Z,12.33
2019-05-05T02:39:50.503Z,11.83
2019-05-05T02:42:14.810Z,11.90
2019-05-05T02:44:45.586Z,15.78
2019-05-05T02:47:17.709Z,14.60
2019-05-05T02:49:46.888Z,13.05
2019-05-05T02:52:17.504Z,10.98
2019-05-05T02:54:46.174Z,12.07
2019-05-05T02:57:15.225Z,12.30
2019-05-05T02:59:49.019Z,12.58
2019-05-05T03:02:19.702Z,13.35
2019-05-05T03:04:48.480Z,8.85
2019-05-05T03:07:18.469Z,13.80
2019-05-05T03:09:49.334Z,11.65
2019-05-05T03:12:20.019Z,14.45
2019-05-05T03:14:53.527Z,8.38
2019-05-05T03:17:23.426Z,14.95
2019-05-05T03:19:53.560Z,10.82
2019-05-05T03:22:23.730Z,13.05
2019-05-05T03:24:54.148Z,12.58
2019-05-05T03:27:23.787Z,11.13
2019-05-05T03:29:53.572Z,13.98
2019-05-05T03:32:25.383Z,13.00
2019-05-05T03:34:53.691Z,9.15
2019-05-05T03:37:24.846Z,13.35
2019-05-05T03:39:55.370Z,15.48
2019-05-05T03:42:28.939Z,16.23
2019-05-05T03:45:00.690Z,12.43
2019-05-05T03:47:29.494Z,11.93
2019-05-05T03:49:58.209Z,11.08
2019-05-05T03:52:27.332Z,15.23
2019-05-05T03:54:55.934Z,17.50
2019-05-05T03:57:24.709Z,12.53
2019-05-05T03:59:54.768Z,15.03
2019-05-05T04:02:41.062Z,13.70
2019-05-05T04:05:20.628Z,12.75
2019-05-05T04:07:49.243Z,14.58
2019-05-05T04:10:17.820Z,13.15
2019-05-05T04:12:47.121Z,13.58
2019-05-05T04:15:15.634Z,15.00
2019-05-05T04:17:53.633Z,12.95
2019-05-05T04:20:24.237Z,14.85
2019-05-05T04:22:54.262Z,15.03
2019-05-05T04:25:24.387Z,16.67
2019-05-05T04:27:53.849Z,14.55
2019-05-05T04:30:23.645Z,15.45
2019-05-05T04:32:54.377Z,16.00
2019-05-05T04:35:24.594Z,13.50
2019-05-05T04:37:54.210Z,10.45
2019-05-05T04:40:24.018Z,14.98
2019-05-05T04:42:54.781Z,15.90
2019-05-05T04:45:24.116Z,13.78
2019-05-05T04:48:09.470Z,12.60
2019-05-05T04:50:44.108Z,12.82
2019-05-05T04:53:14.299Z,12.43
2019-05-05T04:55:44.268Z,14.55
2019-05-05T04:58:13.706Z,14.45
2019-05-05T05:00:44.126Z,13.10
2019-05-05T05:03:30.978Z,14.50
2019-05-05T05:06:01.093Z,13.03
2019-05-05T05:08:29.562Z,12.65
2019-05-05T05:10:58.024Z,12.70
2019-05-05T05:13:26.665Z,15.60
2019-05-05T05:15:55.133Z,10.45
2019-05-05T05:18:24.193Z,13.70
2019-05-05T05:20:54.885Z,19.37
2019-05-05T05:23:24.624Z,8.93
2019-05-05T05:25:54.389Z,9.65
2019-05-05T05:28:23.715Z,12.25
2019-05-05T05:30:54.402Z,13.43
2019-05-05T05:33:24.320Z,12.78
2019-05-05T05:35:54.682Z,14.47
2019-05-05T05:38:24.343Z,11.55
2019-05-05T05:41:06.692Z,14.05
2019-05-05T05:43:36.847Z,14.78
2019-05-05T05:46:07.038Z,16.55
2019-05-05T05:48:37.206Z,13.53
2019-05-05T05:51:07.397Z,12.53
2019-05-05T05:53:39.390Z,13.43
2019-05-05T05:56:07.861Z,13.03
2019-05-05T05:58:36.380Z,12.80
2019-05-05T06:01:04.836Z,14.95
2019-05-05T06:03:33.897Z,13.98
2019-05-05T06:06:04.633Z,11.68
2019-05-05T06:08:34.687Z,11.63
2019-05-05T06:11:04.481Z,9.10
2019-05-05T06:13:33.608Z,13.90
2019-05-05T06:16:04.311Z,13.18
2019-05-05T06:18:34.580Z,11.45
2019-05-05T06:21:04.511Z,10.33
2019-05-05T06:23:35.723Z,12.98
2019-05-05T06:26:06.871Z,14.68
2019-05-05T06:28:34.622Z,12.17
2019-05-05T06:31:04.841Z,10.55
2019-05-05T06:33:34.703Z,12.80
2019-05-05T06:36:03.873Z,11.83
2019-05-05T06:38:34.524Z,9.48
2019-05-05T06:41:07.633Z,10.53
2019-05-05T06:43:40.855Z,11.33
2019-05-05T06:46:14.630Z,10.10
2019-05-05T06:48:43.896Z,10.03
2019-05-05T06:51:14.063Z,12.85
2019-05-05T06:53:43.532Z,10.30
2019-05-05T06:56:14.543Z,12.10
2019-05-05T06:58:44.848Z,12.35
2019-05-05T07:01:14.285Z,8.23
2019-05-05T07:03:43.851Z,15.55
2019-05-05T07:06:14.097Z,14.93
2019-05-05T07:08:43.889Z,9.40
2019-05-05T07:11:14.587Z,12.58
2019-05-05T07:13:44.344Z,9.13
2019-05-05T07:16:14.940Z,11.50
2019-05-05T07:18:44.618Z,9.15
2019-05-05T07:21:14.240Z,12.63
2019-05-05T07:23:44.585Z,8.73
2019-05-05T07:26:14.382Z,7.72
2019-05-05T07:28:44.853Z,9.35
2019-05-05T07:31:14.309Z,10.00
2019-05-05T07:33:43.802Z,7.90
2019-05-05T07:36:30.780Z,11.43
2019-05-05T07:38:59.269Z,10.60
2019-05-05T07:41:27.841Z,16.25
2019-05-05T07:43:56.391Z,10.80
2019-05-05T07:46:24.964Z,7.97
2019-05-05T07:48:54.493Z,9.33
2019-05-05T07:51:24.234Z,9.33
2019-05-05T07:53:54.680Z,11.68
2019-05-05T07:56:23.809Z,9.13
2019-05-05T07:58:54.372Z,13.65
2019-05-05T08:01:24.476Z,8.45
2019-05-05T08:03:53.847Z,8.48
2019-05-05T08:06:23.720Z,8.28
2019-05-05T08:08:54.447Z,11.97
2019-05-05T08:11:23.903Z,7.27
2019-05-05T08:13:54.599Z,5.40
2019-05-05T08:16:27.346Z,9.20
2019-05-05T08:19:13.786Z,9.25
2019-05-05T08:21:43.710Z,10.80
2019-05-05T08:24:24.396Z,8.00
2019-05-05T08:26:54.863Z,6.40
2019-05-05T08:29:30.962Z,9.50
2019-05-05T08:32:04.437Z,16.60
2019-05-05T08:34:33.981Z,11.25
2019-05-05T08:37:04.353Z,11.00
2019-05-05T08:39:34.473Z,8.68
2019-05-05T08:42:04.279Z,8.80
2019-05-05T08:44:34.276Z,7.03
2019-05-05T08:47:04.505Z,5.75
2019-05-05T08:49:34.760Z,7.45
2019-05-05T08:52:04.151Z,7.60
2019-05-05T08:54:34.419Z,8.18
2019-05-05T08:57:04.200Z,6.92
2019-05-05T08:59:33.763Z,6.65
2019-05-05T09:02:04.501Z,6.92
2019-05-05T09:04:34.021Z,4.70
2019-05-05T09:07:04.912Z,6.40
2019-05-05T09:09:33.587Z,5.50
2019-05-05T09:12:04.379Z,6.90
2019-05-05T09:14:34.568Z,11.80
2019-05-05T09:17:04.467Z,6.37
2019-05-05T09:19:34.466Z,7.28
2019-05-05T09:22:06.755Z,10.10
2019-05-05T09:24:53.863Z,7.35
2019-05-05T09:27:33.861Z,5.10
2019-05-05T09:30:03.867Z,8.65
2019-05-05T09:32:34.387Z,8.33
2019-05-05T09:35:04.783Z,5.53
2019-05-05T09:37:34.043Z,5.30
2019-05-05T09:40:04.506Z,4.40
2019-05-05T09:42:34.202Z,4.80
2019-05-05T09:45:04.914Z,5.53
2019-05-05T09:47:36.289Z,4.72
2019-05-05T09:50:06.753Z,8.05
2019-05-05T09:52:35.387Z,6.67
2019-05-05T09:55:05.509Z,5.55
2019-05-05T09:57:34.478Z,7.87
2019-05-05T10:00:09.013Z,6.40
2019-05-05T10:02:39.162Z,8.25
2019-05-05T10:05:08.612Z,6.28
2019-05-05T10:07:40.300Z,5.00
2019-05-05T10:10:09.497Z,5.28
2019-05-05T10:12:41.604Z,4.25
2019-05-05T10:15:10.237Z,8.00
2019-05-05T10:17:38.702Z,5.15
2019-05-05T10:20:07.811Z,8.08
2019-05-05T10:22:36.615Z,5.30
2019-05-05T10:25:23.939Z,8.65
2019-05-05T10:27:53.959Z,6.67
2019-05-05T10:30:23.839Z,6.08
2019-05-05T10:32:54.548Z,6.40
2019-05-05T10:35:23.838Z,8.63
2019-05-05T10:37:54.406Z,5.08
2019-05-05T10:40:27.578Z,5.93
2019-05-05T10:42:56.092Z,7.45
2019-05-05T10:45:24.926Z,6.28
2019-05-05T10:47:53.595Z,6.85
2019-05-05T10:50:24.447Z,5.00
2019-05-05T10:52:53.643Z,5.73
2019-05-05T10:55:23.871Z,5.80
2019-05-05T10:57:54.265Z,5.47
2019-05-05T11:00:40.710Z,4.80
2019-05-05T11:03:09.593Z,4.70
2019-05-05T11:05:38.313Z,4.72
2019-05-05T11:08:07.715Z,5.70
2019-05-05T11:10:36.337Z,4.55
2019-05-05T11:13:05.001Z,5.20
2019-05-05T11:15:34.596Z,3.42
2019-05-05T11:18:04.091Z,2.60
2019-05-05T11:20:34.021Z,3.70
2019-05-05T11:23:04.694Z,6.75
2019-05-05T11:25:33.704Z,4.97
2019-05-05T11:28:04.158Z,4.35
2019-05-05T11:30:38.563Z,2.97
2019-05-05T11:33:15.293Z,4.53
2019-05-05T11:35:45.570Z,4.35
2019-05-05T11:38:14.248Z,7.83
2019-05-05T11:40:43.976Z,7.05
2019-05-05T11:43:14.198Z,5.67
2019-05-05T11:45:43.877Z,3.03
2019-05-05T11:48:14.467Z,5.90
2019-05-05T11:50:43.638Z,5.13
2019-05-05T11:53:14.336Z,5.83
2019-05-05T11:55:44.647Z,3.53
2019-05-05T11:58:14.293Z,4.03
2019-05-05T12:00:43.837Z,9.18
2019-05-05T12:03:14.366Z,9.58
2019-05-05T12:05:44.254Z,4.80
2019-05-05T12:08:14.593Z,5.37
2019-05-05T12:10:45.202Z,3.00
2019-05-05T12:13:14.795Z,5.85
2019-05-05T12:15:45.357Z,5.00
2019-05-05T12:18:14.524Z,3.40
2019-05-05T12:20:44.076Z,5.15
2019-05-05T12:23:12.788Z,7.60
2019-05-05T12:25:56.931Z,5.72
2019-05-05T12:28:24.194Z,3.65
2019-05-05T12:30:55.673Z,7.22
2019-05-05T12:33:24.329Z,9.58
2019-05-05T12:35:53.989Z,4.20
2019-05-05T12:38:24.155Z,3.25
2019-05-05T12:40:53.555Z,4.45
2019-05-05T12:43:24.661Z,6.85
2019-05-05T12:45:55.121Z,4.45
2019-05-05T12:48:30.039Z,4.03
2019-05-05T12:51:00.269Z,4.72
2019-05-05T12:53:28.835Z,4.67
2019-05-05T12:55:57.501Z,6.20
2019-05-05T12:58:26.047Z,4.78
2019-05-05T13:01:14.147Z,4.08
2019-05-05T13:03:43.731Z,5.40
2019-05-05T13:06:14.459Z,4.75
2019-05-05T13:08:44.582Z,6.50
2019-05-05T13:11:14.467Z,3.27
2019-05-05T13:13:43.962Z,3.40
2019-05-05T13:16:13.665Z,4.85
2019-05-05T13:18:42.434Z,4.75
2019-05-05T13:21:21.374Z,5.97
2019-05-05T13:24:08.056Z,5.85
2019-05-05T13:26:40.941Z,4.67
2019-05-05T13:29:09.576Z,4.12
2019-05-05T13:31:38.160Z,4.47
2019-05-05T13:34:06.724Z,4.83
2019-05-05T13:36:35.177Z,4.90
2019-05-05T13:39:06.177Z,5.78
2019-05-05T13:41:34.675Z,5.40
2019-05-05T13:44:04.836Z,5.50
2019-05-05T13:46:35.046Z,5.17
2019-05-05T13:49:23.934Z,5.83
2019-05-05T13:51:53.915Z,4.83
2019-05-05T13:54:24.096Z,4.22
2019-05-05T13:56:52.577Z,5.25
2019-05-05T13:59:21.021Z,5.22
2019-05-05T14:01:49.580Z,3.90
2019-05-05T14:04:18.111Z,5.45
2019-05-05T14:06:49.653Z,4.97
2019-05-05T14:09:16.784Z,5.22
2019-05-05T14:11:45.254Z,4.70
2019-05-05T14:14:13.953Z,4.40
2019-05-05T14:16:44.607Z,7.35
2019-05-05T14:19:14.671Z,3.60
2019-05-05T14:21:44.598Z,6.60
2019-05-05T14:24:29.866Z,7.72
2019-05-05T14:26:58.502Z,5.78
2019-05-05T14:29:36.293Z,5.60
2019-05-05T14:32:06.331Z,5.97
2019-05-05T14:34:36.499Z,5.78
2019-05-05T14:37:18.864Z,5.78
2019-05-05T14:39:47.721Z,6.22
2019-05-05T14:42:16.374Z,7.60
2019-05-05T14:44:47.919Z,6.50
2019-05-05T14:47:16.593Z,6.67
2019-05-05T14:49:45.352Z,8.20
2019-05-05T14:52:14.732Z,7.80
2019-05-05T14:54:43.493Z,7.15
2019-05-05T14:57:13.837Z,7.75
2019-05-05T14:59:42.508Z,9.65
2019-05-05T15:02:11.146Z,6.05
2019-05-05T15:04:41.391Z,8.18
2019-05-05T15:07:11.675Z,5.73
2019-05-05T15:09:47.650Z,3.90
2019-05-05T15:12:30.053Z,9.40
2019-05-05T15:14:58.662Z,4.90
2019-05-05T15:17:27.288Z,4.55
2019-05-05T15:19:55.922Z,5.10
2019-05-05T15:22:24.492Z,6.60
2019-05-05T15:24:53.647Z,5.17
2019-05-05T15:27:24.255Z,6.03
2019-05-05T15:29:54.235Z,6.12
2019-05-05T15:32:24.031Z,6.33
2019-05-05T15:34:54.579Z,6.03
2019-05-05T15:37:23.832Z,4.23
2019-05-05T15:39:53.644Z,4.20
2019-05-05T15:42:22.534Z,7.75
2019-05-05T15:44:51.013Z,6.37
2019-05-05T15:47:19.542Z,5.72
2019-05-05T15:49:48.519Z,4.67
2019-05-05T15:52:19.859Z,6.00
2019-05-05T15:54:47.375Z,4.20
2019-05-05T15:57:18.089Z,3.22
2019-05-05T15:59:46.690Z,5.55
2019-05-05T16:02:18.497Z,5.10
2019-05-05T16:04:47.133Z,3.83
2019-05-05T16:07:15.671Z,2.75
2019-05-05T16:09:46.836Z,5.50
2019-05-05T16:12:14.580Z,5.08
2019-05-05T16:14:46.222Z,3.65
2019-05-05T16:17:28.528Z,5.05
2019-05-05T16:20:07.273Z,5.53
2019-05-05T16:22:37.747Z,5.53
2019-05-05T16:25:10.272Z,7.47
2019-05-05T16:27:40.081Z,6.10
2019-05-05T16:30:10.453Z,8.08
2019-05-05T16:32:39.082Z,5.90
2019-05-05T16:35:09.738Z,20.92
2019-05-05T16:37:38.441Z,37.48
2019-05-05T16:40:11.096Z,21.87
2019-05-05T16:42:39.621Z,7.28
2019-05-05T16:45:08.480Z,6.87
2019-05-05T16:47:37.170Z,8.53
2019-05-05T16:50:06.380Z,7.72
2019-05-05T16:52:39.122Z,9.65
2019-05-05T16:55:27.399Z,5.87
2019-05-05T16:57:56.063Z,6.53
2019-05-05T17:00:44.248Z,7.05
2019-05-05T17:03:13.493Z,6.65
2019-05-05T17:05:46.417Z,5.40
2019-05-05T17:08:13.966Z,5.00
2019-05-05T17:10:43.511Z,5.45
2019-05-05T17:13:15.400Z,7.20
2019-05-05T17:16:03.976Z,12.30
2019-05-05T17:18:36.741Z,12.23
2019-05-05T17:21:13.694Z,11.50
2019-05-05T17:23:43.471Z,8.78
2019-05-05T17:26:14.254Z,8.98
2019-05-05T17:28:44.404Z,4.72
2019-05-05T17:31:13.215Z,10.23
2019-05-05T17:33:41.794Z,13.13
2019-05-05T17:36:13.867Z,12.10
2019-05-05T17:38:44.154Z,9.33
2019-05-05T17:41:30.884Z,7.90
2019-05-05T17:44:07.217Z,12.50
2019-05-05T17:46:44.511Z,10.45
2019-05-05T17:49:14.923Z,5.50
2019-05-05T17:51:45.090Z,6.67
2019-05-05T17:54:19.486Z,7.15
2019-05-05T17:56:54.408Z,6.10
2019-05-05T17:59:23.543Z,6.58
2019-05-05T18:01:54.089Z,8.08
2019-05-05T18:04:24.046Z,5.87
2019-05-05T18:07:04.218Z,5.50
2019-05-05T18:09:34.692Z,4.53
2019-05-05T18:12:09.450Z,5.63
2019-05-05T18:14:44.388Z,6.28
2019-05-05T18:17:18.827Z,5.47
2019-05-05T18:19:47.654Z,7.17
2019-05-05T18:22:17.800Z,6.75
2019-05-05T18:24:46.587Z,4.10
2019-05-05T18:27:15.212Z,4.08
2019-05-05T18:29:48.010Z,8.20
2019-05-05T18:32:18.579Z,6.72
2019-05-05T18:34:48.990Z,3.90
2019-05-05T18:37:19.199Z,5.13
2019-05-05T18:39:49.395Z,4.37
2019-05-05T18:42:24.559Z,5.60
2019-05-05T18:44:55.164Z,8.38
2019-05-05T18:47:25.106Z,7.83
2019-05-05T18:49:54.219Z,6.83
2019-05-05T18:52:24.604Z,5.72
2019-05-05T18:54:54.422Z,4.87
2019-05-05T18:57:24.693Z,7.00
2019-05-05T18:59:54.399Z,7.80
2019-05-05T19:02:30.507Z,3.58
2019-05-05T19:05:00.819Z,5.55
2019-05-05T19:07:55.130Z,5.40
2019-05-05T19:10:15.124Z,5.90
2019-05-05T19:12:44.300Z,22.93
2019-05-05T19:15:13.611Z,21.95
2019-05-05T19:17:43.477Z,14.13
2019-05-05T19:20:34.992Z,6.35
2019-05-05T19:23:05.738Z,8.90
2019-05-05T19:25:35.794Z,11.12
2019-05-05T19:28:04.702Z,8.73
2019-05-05T19:30:35.734Z,10.15
2019-05-05T19:33:04.542Z,7.80
2019-05-05T19:35:43.629Z,5.40
2019-05-05T19:38:04.888Z,7.27
2019-05-05T19:40:34.062Z,3.55
2019-05-05T19:43:04.340Z,7.30
2019-05-05T19:45:35.487Z,9.37
2019-05-05T19:48:06.040Z,12.60
2019-05-05T19:50:36.015Z,8.17
2019-05-05T19:53:06.260Z,9.10
2019-05-05T19:55:36.263Z,5.93
2019-05-05T19:58:05.122Z,7.87
2019-05-05T20:00:35.144Z,5.03
2019-05-05T20:03:05.112Z,2.97
2019-05-05T20:05:34.175Z,7.22
2019-05-05T20:08:04.026Z,5.92
2019-05-05T20:10:32.919Z,5.60
2019-05-05T20:13:01.662Z,11.88
2019-05-05T20:15:41.255Z,4.75
2019-05-05T20:18:14.187Z,4.70
2019-05-05T20:20:44.515Z,6.00
2019-05-05T20:23:13.760Z,14.78
2019-05-05T20:25:44.254Z,5.80
2019-05-05T20:28:14.518Z,7.83
2019-05-05T20:30:43.331Z,9.30
2019-05-05T20:33:25.609Z,15.40
2019-05-05T20:36:11.192Z,11.10
2019-05-05T20:38:41.446Z,8.18
2019-05-05T20:41:14.571Z,6.90
2019-05-05T20:43:44.767Z,7.22
2019-05-05T20:46:15.132Z,7.03
2019-05-05T20:48:44.886Z,5.92
2019-05-05T20:51:13.916Z,7.15
2019-05-05T20:53:45.170Z,6.92
2019-05-05T20:56:14.924Z,4.25
2019-05-05T20:58:44.039Z,5.33
2019-05-05T21:01:14.020Z,10.93
2019-05-05T21:03:43.014Z,7.85
2019-05-05T21:06:13.657Z,9.08
2019-05-05T21:08:43.810Z,10.85
2019-05-05T21:11:14.124Z,16.37
2019-05-05T21:13:45.087Z,9.95
2019-05-05T21:16:14.314Z,11.22
2019-05-05T21:18:45.644Z,12.70
2019-05-05T21:23:45.318Z,16.80
2019-05-05T21:26:23.459Z,7.00
2019-05-05T21:28:53.783Z,10.00
2019-05-05T21:31:23.970Z,9.47
2019-05-05T21:33:54.862Z,6.87
2019-05-05T21:36:24.333Z,10.07
2019-05-05T21:38:54.856Z,6.42
2019-05-05T21:41:24.432Z,7.30
2019-05-05T21:43:56.033Z,9.90
2019-05-05T21:46:25.615Z,6.83
2019-05-05T21:48:54.503Z,7.05
2019-05-05T21:51:34.967Z,9.23
2019-05-05T21:54:23.551Z,11.37
2019-05-05T21:57:05.590Z,10.38
2019-05-05T21:59:34.225Z,9.58
2019-05-05T22:02:03.919Z,11.93
2019-05-05T22:04:33.790Z,9.90
2019-05-05T22:07:03.704Z,15.05
2019-05-05T22:09:32.503Z,11.20
2019-05-05T22:12:01.078Z,12.63
2019-05-05T22:14:29.700Z,10.80
2019-05-05T22:16:58.221Z,9.95
2019-05-05T22:19:28.421Z,10.75
2019-05-05T22:21:58.582Z,11.95
2019-05-05T22:24:27.154Z,8.78
2019-05-05T22:26:55.775Z,9.58
2019-05-05T22:29:25.035Z,11.35
2019-05-05T22:31:53.763Z,10.75
2019-05-05T22:34:24.115Z,12.82
2019-05-05T22:36:52.654Z,10.93
2019-05-05T22:39:21.139Z,12.05
2019-05-05T22:41:49.669Z,13.65
2019-05-05T22:44:18.275Z,9.43
2019-05-05T22:46:48.376Z,8.68
2019-05-05T22:49:16.832Z,10.15
2019-05-05T22:51:45.465Z,9.15
2019-05-05T22:54:15.030Z,8.00
2019-05-05T22:56:44.804Z,10.58
2019-05-05T22:59:13.966Z,9.45
2019-05-05T23:01:42.629Z,7.75
2019-05-05T23:04:15.670Z,8.68
2019-05-05T23:06:48.564Z,10.30
2019-05-05T23:09:17.117Z,9.45
2019-05-05T23:11:45.736Z,11.33
2019-05-05T23:14:18.586Z,8.10
2019-05-05T23:16:48.891Z,7.22
2019-05-05T23:19:17.488Z,8.30
2019-05-05T23:21:50.718Z,9.95
2019-05-05T23:24:20.890Z,9.70
2019-05-05T23:26:51.093Z,9.35
2019-05-05T23:29:19.654Z,9.03
2019-05-05T23:31:48.207Z,8.63
2019-05-05T23:34:16.652Z,10.43
2019-05-05T23:36:45.135Z,14.23
2019-05-05T23:39:13.796Z,9.63
2019-05-05T23:41:42.231Z,7.80
2019-05-05T23:44:10.784Z,8.73
2019-05-05T23:46:39.323Z,7.17
2019-05-05T23:49:07.976Z,7.28
2019-05-05T23:51:36.550Z,11.85
2019-05-05T23:54:05.189Z,10.10
2019-05-05T23:56:34.992Z,8.55
2019-05-05T23:59:04.357Z,9.03
